createdAt,value
2023-03-18T00:01:49.942Z,13.08
2023-03-18T00:06:51.445Z,13.08
2023-03-18T00:11:54.038Z,13.08
2023-03-18T00:16:56.060Z,13.01
2023-03-18T00:21:57.613Z,13.03
2023-03-18T00:26:59.002Z,13.03
2023-03-18T00:32:01.037Z,13.01
2023-03-18T00:37:03.608Z,12.98
2023-03-18T00:42:10.601Z,13.05
2023-03-18T00:47:12.031Z,13.09
2023-03-18T00:52:13.629Z,13.11
2023-03-18T00:57:14.994Z,13.09
2023-03-18T01:02:17.145Z,13.13
2023-03-18T01:07:19.482Z,13.10
2023-03-18T01:12:21.061Z,13.08
2023-03-18T01:17:22.415Z,13.00
2023-03-18T01:22:24.245Z,12.98
2023-03-18T01:27:25.670Z,12.95
2023-03-18T01:32:27.303Z,12.90
2023-03-18T01:37:28.966Z,12.86
2023-03-18T01:42:30.419Z,12.88
2023-03-18T01:47:31.811Z,12.78
2023-03-18T01:52:33.617Z,12.87
2023-03-18T01:57:35.695Z,12.86
2023-03-18T02:02:42.243Z,12.78
2023-03-18T02:07:44.988Z,12.69
2023-03-18T02:12:51.771Z,12.68
2023-03-18T02:18:06.381Z,12.62
2023-03-18T02:23:12.113Z,12.58
2023-03-18T02:28:20.212Z,12.49
2023-03-18T02:33:26.134Z,12.53
2023-03-18T02:38:27.553Z,12.46
2023-03-18T02:43:31.506Z,12.34
2023-03-18T02:48:39.420Z,12.31
2023-03-18T02:53:41.817Z,12.22
2023-03-18T02:58:43.546Z,12.20
2023-03-18T03:03:45.215Z,12.26
2023-03-18T03:08:46.715Z,12.18
2023-03-18T03:13:48.438Z,12.11
2023-03-18T03:18:50.872Z,12.12
2023-03-18T03:23:52.297Z,12.12
2023-03-18T03:28:53.687Z,12.09
2023-03-18T03:33:55.247Z,12.06
2023-03-18T03:38:56.565Z,12.16
2023-03-18T03:43:57.985Z,12.07
2023-03-18T03:48:59.970Z,12.16
2023-03-18T03:54:01.775Z,12.07
2023-03-18T03:59:04.745Z,12.07
2023-03-18T04:04:06.162Z,12.07
2023-03-18T04:09:07.549Z,12.00
2023-03-18T04:14:09.137Z,12.01
2023-03-18T04:19:10.988Z,11.92
2023-03-18T04:24:12.614Z,11.95
2023-03-18T04:29:14.087Z,11.85
2023-03-18T04:34:15.461Z,11.88
2023-03-18T04:39:17.247Z,11.82
2023-03-18T04:44:19.210Z,11.71
2023-03-18T04:49:21.071Z,11.60
2023-03-18T04:54:22.677Z,11.62
2023-03-18T04:59:24.204Z,11.65
2023-03-18T05:04:26.048Z,11.64
2023-03-18T05:09:27.463Z,11.59
2023-03-18T05:14:28.898Z,11.65
2023-03-18T05:19:30.519Z,11.70
2023-03-18T05:24:32.323Z,11.74
2023-03-18T05:29:33.710Z,11.79
2023-03-18T05:34:37.598Z,11.77
2023-03-18T05:39:40.075Z,11.80
2023-03-18T05:44:42.233Z,11.81
2023-03-18T05:49:43.582Z,11.80
2023-03-18T05:54:45.199Z,11.79
2023-03-18T05:59:46.658Z,11.80
2023-03-18T06:04:48.104Z,11.73
2023-03-18T06:09:50.148Z,11.77
2023-03-18T06:14:52.256Z,11.79
2023-03-18T06:19:54.417Z,11.76
2023-03-18T06:24:56.507Z,11.79
2023-03-18T06:29:58.093Z,11.85
2023-03-18T06:35:00.101Z,11.88
2023-03-18T06:40:01.749Z,11.90
2023-03-18T06:45:03.505Z,11.91
2023-03-18T06:50:05.735Z,11.94
2023-03-18T06:55:07.353Z,11.95
2023-03-18T07:00:10.435Z,11.90
2023-03-18T07:05:12.725Z,11.77
2023-03-18T07:10:22.818Z,11.78
2023-03-18T07:15:24.409Z,11.78
2023-03-18T07:20:25.914Z,11.67
2023-03-18T07:25:27.228Z,11.93
2023-03-18T07:30:28.887Z,12.15
2023-03-18T07:35:30.457Z,12.39
2023-03-18T07:40:32.450Z,12.54
2023-03-18T07:45:34.645Z,12.76
2023-03-18T07:50:36.440Z,12.97
2023-03-18T07:55:39.051Z,13.08
2023-03-18T08:00:40.494Z,12.88
2023-03-18T08:05:41.921Z,12.80
2023-03-18T08:10:43.373Z,12.86
2023-03-18T08:15:44.725Z,13.18
2023-03-18T08:20:46.136Z,13.38
2023-03-18T08:25:52.138Z,13.59
2023-03-18T08:30:55.799Z,13.83
2023-03-18T08:35:58.033Z,13.99
2023-03-18T08:40:59.596Z,14.28
2023-03-18T08:46:02.088Z,14.59
2023-03-18T08:51:05.131Z,14.87
2023-03-18T08:56:07.702Z,15.08
2023-03-18T09:01:11.442Z,15.31
2023-03-18T09:06:13.343Z,15.29
2023-03-18T09:11:14.799Z,15.67
2023-03-18T09:16:17.212Z,15.92
2023-03-18T09:21:19.143Z,16.18
2023-03-18T09:26:20.820Z,16.52
2023-03-18T09:31:22.247Z,16.94
2023-03-18T09:36:23.899Z,17.19
2023-03-18T09:41:52.440Z,17.59
2023-03-18T09:47:23.794Z,18.12
2023-03-18T09:52:27.123Z,18.08
2023-03-18T09:57:38.655Z,18.30
2023-03-18T10:02:45.581Z,18.62
2023-03-18T10:07:52.749Z,19.33
2023-03-18T10:13:12.595Z,20.13
2023-03-18T10:18:34.729Z,22.00
2023-03-18T10:24:05.373Z,24.53
2023-03-18T10:29:27.462Z,25.98
2023-03-18T10:34:53.679Z,25.50
2023-03-18T10:39:55.722Z,23.99
2023-03-18T10:45:15.034Z,23.15
2023-03-18T10:50:18.466Z,24.13
2023-03-18T10:55:25.430Z,27.76
2023-03-18T11:00:33.156Z,27.92
2023-03-18T11:05:37.219Z,30.54
2023-03-18T11:10:46.349Z,32.50
2023-03-18T11:15:51.832Z,33.78
2023-03-18T11:21:04.946Z,34.15
2023-03-18T11:26:08.660Z,34.67
2023-03-18T11:31:18.025Z,35.56
2023-03-18T11:36:24.965Z,35.71
2023-03-18T11:41:28.281Z,35.89
2023-03-18T11:46:45.967Z,31.67
2023-03-18T11:52:06.664Z,30.42
2023-03-18T11:57:23.465Z,31.01
2023-03-18T12:03:03.669Z,27.50
2023-03-18T12:08:31.763Z,25.61
2023-03-18T12:13:52.730Z,23.97
2023-03-18T12:19:32.139Z,23.79
2023-03-18T12:24:56.760Z,23.77
2023-03-18T12:30:19.486Z,25.26
2023-03-18T12:35:39.891Z,25.35
2023-03-18T12:40:59.646Z,30.10
2023-03-18T12:46:25.660Z,33.86
2023-03-18T12:51:43.043Z,36.18
2023-03-18T12:56:51.054Z,35.62
2023-03-18T13:02:07.136Z,31.84
2023-03-18T13:07:21.685Z,29.72
2023-03-18T13:12:30.440Z,30.15
2023-03-18T13:17:36.121Z,29.36
2023-03-18T13:22:43.849Z,28.16
2023-03-18T13:27:57.849Z,26.48
2023-03-18T13:33:30.526Z,25.46
2023-03-18T13:38:41.614Z,24.89
2023-03-18T13:43:49.218Z,24.62
2023-03-18T13:48:56.587Z,25.44
2023-03-18T13:54:01.992Z,25.05
2023-03-18T13:59:28.457Z,24.13
2023-03-18T14:04:32.435Z,23.56
2023-03-18T14:09:36.056Z,23.06
2023-03-18T14:14:56.911Z,23.43
2023-03-18T14:20:05.559Z,22.97
2023-03-18T14:25:39.260Z,22.62
2023-03-18T14:31:05.628Z,22.57
2023-03-18T14:36:10.640Z,22.86
2023-03-18T14:41:17.141Z,23.22
2023-03-18T14:46:24.380Z,23.08
2023-03-18T14:51:28.568Z,22.83
2023-03-18T14:56:36.280Z,22.48
2023-03-18T15:01:44.320Z,22.02
2023-03-18T15:06:46.387Z,21.77
2023-03-18T15:11:48.320Z,21.43
2023-03-18T15:16:52.127Z,21.39
2023-03-18T15:21:54.848Z,21.34
2023-03-18T15:26:58.767Z,21.05
2023-03-18T15:32:15.889Z,20.51
2023-03-18T15:37:41.611Z,20.62
2023-03-18T15:42:45.042Z,20.46
2023-03-18T15:47:47.404Z,20.11
2023-03-18T15:52:48.764Z,19.99
2023-03-18T15:57:53.919Z,19.59
2023-03-18T16:02:55.349Z,19.52
2023-03-18T16:07:56.954Z,19.51
2023-03-18T16:13:02.261Z,19.41
2023-03-18T16:18:03.626Z,19.24
2023-03-18T16:23:05.574Z,19.12
2023-03-18T16:28:07.994Z,19.17
2023-03-18T16:33:13.827Z,19.17
2023-03-18T16:38:17.641Z,19.10
2023-03-18T16:43:22.970Z,18.98
2023-03-18T16:48:26.168Z,18.77
2023-03-18T16:53:29.636Z,18.83
2023-03-18T16:58:35.677Z,18.84
2023-03-18T17:03:37.099Z,18.80
2023-03-18T17:08:39.844Z,18.63
2023-03-18T17:13:41.279Z,18.42
2023-03-18T17:18:42.628Z,18.11
2023-03-18T17:23:44.447Z,17.92
2023-03-18T17:28:49.247Z,17.90
2023-03-18T17:33:50.561Z,17.79
2023-03-18T17:38:56.508Z,17.79
2023-03-18T17:43:58.126Z,17.73
2023-03-18T17:48:59.539Z,17.64
2023-03-18T17:54:02.229Z,17.56
2023-03-18T17:59:10.482Z,17.48
2023-03-18T18:04:16.800Z,17.40
2023-03-18T18:09:19.710Z,17.29
2023-03-18T18:14:24.990Z,17.27
2023-03-18T18:19:27.000Z,17.21
2023-03-18T18:24:31.520Z,17.09
2023-03-18T18:29:35.001Z,16.96
2023-03-18T18:34:36.434Z,16.85
2023-03-18T18:39:37.741Z,16.81
2023-03-18T18:44:39.229Z,16.75
2023-03-18T18:49:40.849Z,16.69
2023-03-18T18:54:42.467Z,16.66
2023-03-18T18:59:46.435Z,16.60
2023-03-18T19:04:47.800Z,16.54
2023-03-18T19:09:49.711Z,16.46
2023-03-18T19:14:51.084Z,16.42
2023-03-18T19:19:53.051Z,16.31
2023-03-18T19:24:54.551Z,16.27
2023-03-18T19:29:58.808Z,16.22
2023-03-18T19:35:00.317Z,16.09
2023-03-18T19:40:20.367Z,16.05
2023-03-18T19:45:21.937Z,15.98
2023-03-18T19:50:23.490Z,15.85
2023-03-18T19:55:25.557Z,15.76
2023-03-18T20:00:26.939Z,15.71
2023-03-18T20:05:28.592Z,15.64
2023-03-18T20:10:30.052Z,15.59
2023-03-18T20:15:32.480Z,15.51
2023-03-18T20:20:34.514Z,15.42
2023-03-18T20:25:40.945Z,15.32
2023-03-18T20:30:43.762Z,15.32
2023-03-18T20:35:47.722Z,15.34
2023-03-18T20:40:50.130Z,15.29
2023-03-18T20:45:52.128Z,15.34
2023-03-18T20:50:55.172Z,15.32
2023-03-18T20:55:57.452Z,15.27
2023-03-18T21:00:58.994Z,15.25
2023-03-18T21:06:03.434Z,15.23
2023-03-18T21:11:05.481Z,15.09
2023-03-18T21:16:12.900Z,15.15
2023-03-18T21:21:23.712Z,15.13
2023-03-18T21:26:25.450Z,15.11
2023-03-18T21:31:31.419Z,15.11
2023-03-18T21:36:33.206Z,15.06
2023-03-18T21:41:34.740Z,15.04
2023-03-18T21:46:36.447Z,15.02
2023-03-18T21:51:39.853Z,14.98
2023-03-18T21:56:41.384Z,15.04
2023-03-18T22:01:43.023Z,15.03
2023-03-18T22:06:44.398Z,15.04
2023-03-18T22:11:45.778Z,15.00
2023-03-18T22:16:47.127Z,14.98
2023-03-18T22:21:48.493Z,14.96
2023-03-18T22:26:49.835Z,14.95
2023-03-18T22:31:51.823Z,14.95
2023-03-18T22:36:53.272Z,14.83
2023-03-18T22:41:54.686Z,14.89
2023-03-18T22:46:56.194Z,14.85
2023-03-18T22:51:57.920Z,14.75
2023-03-18T22:56:59.230Z,14.65
2023-03-18T23:02:00.760Z,14.65
2023-03-18T23:07:02.301Z,14.63
2023-03-18T23:12:03.931Z,14.55
2023-03-18T23:17:05.369Z,14.57
2023-03-18T23:22:07.115Z,14.60
2023-03-18T23:27:08.593Z,14.54
2023-03-18T23:32:11.315Z,14.54
2023-03-18T23:37:13.887Z,14.54
2023-03-18T23:42:18.183Z,14.53
2023-03-18T23:47:19.464Z,14.50
2023-03-18T23:52:21.387Z,14.45
2023-03-18T23:57:22.910Z,14.47
